Terminal Aerodrome Forecast
Issued by NWS

Home | Current Version | Previous Version | Text Only | Print | Product List | Glossary On
Versions: 1 2 3 4 5 6 7 8 9 10 11 12 13 14 15
223
FTUS43 KMPX 171138
TAFAXN
TAF
KAXN 171138Z 1712/1812 29004KT 4SM BR SCT250
     FM171600 28005KT P6SM SCT150
     FM172200 21007KT P6SM SCT250=

USA.gov is the U.S. government's official web portal to all federal, state and local government web resources and services.